Time;durP1;ratioP1;P1;durP2;ratioP2;P2;SDS_P1;SDS_P2;PMS_P1;PMS_P2;Temp;Humidity;BMP_temperature;BMP_pressure;BME280_temperature;BME280_humidity;BME280_pressure;Samples;Min_cycle;Max_cycle;Signal;HPM_P1;HPM_P2
2023/07/22 00:00:14;;;;;;;;;6.67;6.00;;;;;23.10;34.95;101202.44;4962307;28;45510;-72
2023/07/22 00:02:40;;;;;;;;;5.33;5.00;;;;;23.05;35.33;101185.75;4965756;28;46184;-70
2023/07/22 00:05:07;;;;;;;;;9.67;6.67;;;;;23.10;34.65;101198.91;4965560;28;45542;-72
2023/07/22 00:07:33;;;;;;;;;8.67;7.00;;;;;23.04;34.82;101187.56;4940923;28;45602;-70
2023/07/22 00:10:00;;;;;;;;;7.33;7.00;;;;;23.11;35.43;101195.28;4959435;28;45876;-72
2023/07/22 00:12:26;;;;;;;;;6.33;6.33;;;;;22.93;34.68;101194.25;4940214;28;45836;-71
2023/07/22 00:14:53;;;;;;;;;10.67;7.67;;;;;22.74;35.21;101192.34;4955246;28;45504;-69
2023/07/22 00:17:18;;;;;;;;;12.67;8.00;;;;;22.52;35.47;101181.69;4940515;28;45305;-71
2023/07/22 00:19:48;;;;;;;;;10.33;8.67;;;;;22.41;35.72;101176.78;4940572;28;45936;-69
2023/07/22 00:22:15;;;;;;;;;7.33;6.33;;;;;22.37;35.66;101179.63;4959866;28;45461;-71
2023/07/22 00:24:41;;;;;;;;;8.00;5.67;;;;;22.26;36.10;101172.06;4945316;28;45523;-71
2023/07/22 00:27:08;;;;;;;;;8.33;7.00;;;;;22.32;35.93;101184.28;4943746;28;46253;-70
2023/07/22 00:29:35;;;;;;;;;8.33;6.00;;;;;22.38;36.21;101189.38;4941705;28;45461;-72
2023/07/22 00:32:00;;;;;;;;;6.00;6.00;;;;;22.39;35.97;101185.78;4954101;28;45566;-72
2023/07/22 00:34:26;;;;;;;;;5.67;4.33;;;;;22.39;35.95;101183.97;4944328;28;45790;-69
2023/07/22 00:36:52;;;;;;;;;8.33;6.33;;;;;22.30;36.83;101172.78;4941327;28;45483;-69
2023/07/22 00:39:18;;;;;;;;;6.33;6.33;;;;;22.31;36.30;101187.91;4946859;28;45504;-72
2023/07/22 00:41:44;;;;;;;;;6.00;5.33;;;;;22.18;36.65;101176.78;4961166;28;45455;-70
2023/07/22 00:44:12;;;;;;;;;8.00;8.00;;;;;22.27;36.59;101191.59;4961550;28;45520;-71
2023/07/22 00:46:38;;;;;;;;;6.67;5.33;;;;;22.32;36.58;101189.63;4946437;28;45715;-70
2023/07/22 00:49:08;;;;;;;;;9.00;7.00;;;;;22.36;36.47;101181.44;4961361;28;45449;-70
2023/07/22 00:51:34;;;;;;;;;7.00;7.00;;;;;22.40;36.69;101180.38;4974089;28;45559;-70
2023/07/22 00:53:59;;;;;;;;;8.33;7.33;;;;;22.41;36.97;101176.78;4956975;28;45627;-71
2023/07/22 00:56:25;;;;;;;;;10.00;6.33;;;;;22.50;36.52;101174.69;4953024;28;46263;-69
2023/07/22 00:58:52;;;;;;;;;7.67;7.67;;;;;22.48;36.85;101177.41;4963662;28;45361;-71
2023/07/22 01:01:17;;;;;;;;;9.33;9.00;;;;;22.34;36.33;101174.41;4963707;28;45214;-71
2023/07/22 01:03:43;;;;;;;;;7.33;6.67;;;;;22.34;37.35;101174.41;4972059;28;45436;-71
2023/07/22 01:06:09;;;;;;;;;6.33;5.33;;;;;22.38;36.64;101176.03;4984058;28;46761;-69
2023/07/22 01:08:35;;;;;;;;;7.33;7.33;;;;;22.36;37.12;101160.09;4967770;28;45349;-69
2023/07/22 01:11:01;;;;;;;;;7.00;6.00;;;;;22.43;36.42;101169.56;4965453;28;45400;-70
2023/07/22 01:13:27;;;;;;;;;10.00;8.33;;;;;22.42;36.36;101164.28;4966966;28;45433;-69
2023/07/22 01:15:53;;;;;;;;;7.33;6.67;;;;;22.43;37.25;101160.72;4974445;28;45541;-70
2023/07/22 01:18:18;;;;;;;;;8.33;6.33;;;;;22.49;36.55;101175.59;4964862;28;45489;-70
2023/07/22 01:20:45;;;;;;;;;7.00;7.00;;;;;22.43;37.35;101158.91;4963838;28;45749;-72
2023/07/22 01:23:11;;;;;;;;;8.33;7.67;;;;;22.52;36.64;101171.00;4963243;28;45547;-70
2023/07/22 01:25:37;;;;;;;;;7.67;6.00;;;;;22.50;36.53;101169.34;4962604;28;46169;-70
2023/07/22 01:28:03;;;;;;;;;7.67;7.67;;;;;22.22;36.80;101168.63;4963989;28;45491;-69
2023/07/22 01:30:28;;;;;;;;;9.00;9.00;;;;;22.01;37.21;101159.63;4964503;28;45297;-71
2023/07/22 01:32:54;;;;;;;;;10.00;8.67;;;;;21.90;38.11;101169.88;4963880;28;45318;-71
2023/07/22 01:35:20;;;;;;;;;9.33;9.00;;;;;21.94;37.93;101152.81;4963609;28;45345;-70
2023/07/22 01:37:46;;;;;;;;;9.33;9.00;;;;;21.99;37.48;101153.50;4964009;28;45465;-70
2023/07/22 01:40:12;;;;;;;;;10.33;9.00;;;;;22.05;37.45;101157.72;4964615;28;45357;-70
2023/07/22 01:42:41;;;;;;;;;10.33;8.00;;;;;22.06;37.28;101148.78;4962600;28;45423;-71
2023/07/22 01:45:08;;;;;;;;;8.67;8.67;;;;;22.02;37.46;101156.06;4959981;28;46708;-73
2023/07/22 01:47:37;;;;;;;;;8.00;8.00;;;;;21.70;38.00;101159.94;4956776;28;45527;-67
2023/07/22 01:50:04;;;;;;;;;13.00;8.33;;;;;21.45;38.54;101153.78;4953859;28;45433;-69
2023/07/22 01:52:29;;;;;;;;;6.33;6.33;;;;;21.33;38.49;101152.41;4949081;28;45759;-66
2023/07/22 01:54:55;;;;;;;;;9.33;9.33;;;;;21.27;38.61;101148.16;4956814;28;46017;-68
2023/07/22 01:57:21;;;;;;;;;9.67;7.33;;;;;21.14;38.91;101155.75;4947293;28;45266;-68
2023/07/22 01:59:46;;;;;;;;;10.67;7.67;;;;;21.16;39.02;101156.53;4958323;28;45577;-70
2023/07/22 02:02:12;;;;;;;;;9.67;8.00;;;;;21.25;38.95;101151.81;4946806;28;45520;-70
2023/07/22 02:04:37;;;;;;;;;9.33;7.00;;;;;21.09;39.14;101148.81;4959561;28;45664;-65
2023/07/22 02:07:03;;;;;;;;;10.67;8.67;;;;;21.03;39.27;101151.72;4961460;28;45516;-67
2023/07/22 02:09:28;;;;;;;;;13.67;9.00;;;;;20.95;39.50;101152.84;4970044;28;45452;-67
2023/07/22 02:11:54;;;;;;;;;13.00;8.50;;;;;20.93;39.66;101141.38;4960256;28;45489;-68
2023/07/22 02:14:20;;;;;;;;;10.67;8.33;;;;;20.99;39.24;101150.06;4959244;28;45282;-68
2023/07/22 02:16:45;;;;;;;;;10.00;8.00;;;;;20.88;39.13;101127.38;4959410;28;45494;-72
2023/07/22 02:19:11;;;;;;;;;7.67;7.67;;;;;20.98;39.04;101145.69;4970872;28;45374;-67
2023/07/22 02:21:36;;;;;;;;;8.00;8.00;;;;;20.94;39.28;101151.09;4960547;28;45506;-73
2023/07/22 02:24:02;;;;;;;;;11.33;7.67;;;;;20.87;39.34;101135.38;4958753;28;46006;-67
2023/07/22 02:26:28;;;;;;;;;10.33;8.67;;;;;20.94;39.32;101139.59;4959369;28;45384;-68
2023/07/22 02:28:54;;;;;;;;;8.00;7.67;;;;;21.07;39.44;101156.00;4958966;28;46905;-67
2023/07/22 02:31:22;;;;;;;;;9.33;8.33;;;;;20.92;39.44;101144.94;4947970;28;45456;-66
2023/07/22 02:33:47;;;;;;;;;7.67;7.67;;;;;20.88;39.57;101142.44;4958463;28;46244;-71
2023/07/22 02:36:13;;;;;;;;;8.67;7.00;;;;;20.91;39.46;101150.34;4959687;28;45458;-71
2023/07/22 02:38:38;;;;;;;;;8.67;8.33;;;;;20.84;39.72;101155.00;4966209;28;45566;-72
2023/07/22 02:41:07;;;;;;;;;5.67;5.67;;;;;20.90;39.39;101156.56;4961697;28;45477;-72
2023/07/22 02:43:35;;;;;;;;;9.33;8.33;;;;;20.84;39.69;101163.00;4967739;28;45458;-70
2023/07/22 02:46:03;;;;;;;;;11.00;10.00;;;;;20.66;40.03;101139.66;4958879;28;45429;-72
2023/07/22 02:48:36;;;;;;;;;9.33;9.00;;;;;20.65;39.54;101144.09;4959983;28;45632;-74
2023/07/22 02:51:06;;;;;;;;;12.33;9.67;;;;;20.52;39.82;101126.75;4959312;28;45260;-72
2023/07/22 02:53:33;;;;;;;;;13.67;8.67;;;;;20.69;40.01;101155.50;4958872;28;45547;-72
2023/07/22 02:55:59;;;;;;;;;9.67;9.67;;;;;20.79;39.33;101158.75;4957466;28;45484;-72
2023/07/22 02:58:25;;;;;;;;;10.00;8.00;;;;;20.80;40.01;101157.81;4957182;28;45366;-72
2023/07/22 03:00:53;;;;;;;;;13.33;9.00;;;;;20.59;39.66;101132.78;4974354;28;45618;-72
2023/07/22 03:03:19;;;;;;;;;11.00;8.33;;;;;20.47;39.97;101132.22;4964636;28;46311;-72
2023/07/22 03:05:45;;;;;;;;;7.67;6.33;;;;;20.53;39.92;101152.47;4966503;28;45278;-71
2023/07/22 03:08:11;;;;;;;;;8.33;8.33;;;;;20.60;39.95;101159.38;4958886;28;45270;-73
2023/07/22 03:10:36;;;;;;;;;11.00;8.00;;;;;20.61;39.98;101161.09;4958809;28;45508;-72
2023/07/22 03:13:03;;;;;;;;;7.33;6.33;;;;;20.62;39.84;101160.19;4958660;28;45888;-73
2023/07/22 03:15:32;;;;;;;;;6.67;5.67;;;;;20.59;39.84;101152.28;4965543;28;45393;-72
2023/07/22 03:17:59;;;;;;;;;6.33;6.00;;;;;20.74;39.56;101161.56;4958341;28;45349;-72
2023/07/22 03:20:27;;;;;;;;;10.33;8.33;;;;;20.77;39.70;101160.59;4958874;28;45425;-71
2023/07/22 03:22:52;;;;;;;;;10.00;8.00;;;;;20.47;39.95;101126.06;4958837;28;45623;-73
2023/07/22 03:25:20;;;;;;;;;9.00;8.67;;;;;20.60;40.36;101158.50;4962258;28;45495;-73
2023/07/22 03:27:46;;;;;;;;;9.67;7.00;;;;;20.61;40.26;101161.09;4981074;28;45444;-72
2023/07/22 03:30:17;;;;;;;;;11.00;7.67;;;;;20.62;40.22;101162.84;4958635;28;45491;-73
2023/07/22 03:32:44;;;;;;;;;8.33;8.33;;;;;20.44;40.51;101131.47;4962997;28;45446;-71
2023/07/22 03:35:12;;;;;;;;;9.00;7.33;;;;;20.63;40.33;101158.38;4961191;28;45361;-71
2023/07/22 03:37:39;;;;;;;;;7.00;7.00;;;;;20.61;40.78;101165.53;4958346;28;45548;-71
2023/07/22 03:40:11;;;;;;;;;8.67;8.33;;;;;20.60;40.37;101175.34;4962523;28;45501;-72
2023/07/22 03:42:37;;;;;;;;;8.67;8.67;;;;;20.53;40.81;101176.41;4956724;28;45838;-72
2023/07/22 03:45:03;;;;;;;;;5.33;5.33;;;;;20.47;40.82;101168.63;4966007;28;45286;-71
2023/07/22 03:47:29;;;;;;;;;12.33;8.67;;;;;20.43;40.95;101161.66;4958149;28;45318;-71
2023/07/22 03:49:55;;;;;;;;;9.00;9.00;;;;;20.50;40.55;101177.38;4962648;28;45590;-72
2023/07/22 03:52:20;;;;;;;;;9.00;8.00;;;;;20.41;40.82;101166.19;4962507;28;46128;-72
2023/07/22 03:54:46;;;;;;;;;9.67;6.33;;;;;20.46;40.85;101169.56;4965627;28;45432;-72
2023/07/22 03:57:11;;;;;;;;;11.00;9.33;;;;;20.56;40.56;101175.47;4944522;28;45814;-71
2023/07/22 03:59:42;;;;;;;;;8.67;7.67;;;;;20.50;40.43;101158.75;4969823;28;45408;-72
2023/07/22 04:02:08;;;;;;;;;14.67;8.67;;;;;20.45;40.56;101166.00;4965210;28;46761;-71
2023/07/22 04:04:33;;;;;;;;;10.67;8.33;;;;;20.27;40.81;101156.84;4966765;28;45717;-71
2023/07/22 04:06:59;;;;;;;;;10.00;9.00;;;;;20.28;40.70;101158.56;4949862;28;45516;-71
2023/07/22 04:09:27;;;;;;;;;10.67;9.33;;;;;20.23;41.09;101165.81;4942622;28;45839;-71
2023/07/22 04:11:52;;;;;;;;;8.67;7.33;;;;;20.16;41.28;101161.59;4956714;28;45428;-72
2023/07/22 04:14:18;;;;;;;;;8.67;5.33;;;;;20.15;40.92;101173.19;4965345;28;45787;-72
2023/07/22 04:16:43;;;;;;;;;13.33;7.67;;;;;20.14;41.17;101171.41;4966485;28;45394;-74
2023/07/22 04:19:09;;;;;;;;;9.67;9.00;;;;;20.12;41.46;101167.94;4955761;28;45400;-72
2023/07/22 04:21:34;;;;;;;;;8.00;7.33;;;;;20.12;41.63;101155.53;4966268;28;46035;-73
2023/07/22 04:24:00;;;;;;;;;10.00;8.00;;;;;20.13;41.14;101153.72;4955412;28;45377;-70
2023/07/22 04:26:26;;;;;;;;;6.33;6.33;;;;;20.23;40.87;101165.81;4969145;28;45483;-71
2023/07/22 04:28:52;;;;;;;;;11.00;10.33;;;;;20.28;40.91;101171.00;4951134;28;45467;-71
2023/07/22 04:31:25;;;;;;;;;10.00;7.33;;;;;20.12;41.41;101141.34;4944244;28;45566;-70
2023/07/22 04:33:50;;;;;;;;;9.00;8.67;;;;;20.33;41.02;101166.41;4959177;28;45563;-71
2023/07/22 04:36:16;;;;;;;;;13.33;8.67;;;;;20.30;41.19;101169.16;4956530;28;45452;-70
2023/07/22 04:38:42;;;;;;;;;11.00;9.00;;;;;20.13;41.44;101165.25;4946980;28;45462;-70
2023/07/22 04:41:07;;;;;;;;;3.00;2.00;;;;;20.22;40.91;101169.41;4964118;28;45439;-70
2023/07/22 04:43:36;;;;;;;;;11.67;9.33;;;;;20.15;41.36;101175.84;4970827;28;45330;-70
2023/07/22 04:46:02;;;;;;;;;9.00;8.67;;;;;20.17;41.40;101181.09;4968188;28;45524;-69
2023/07/22 04:48:27;;;;;;;;;13.00;9.67;;;;;20.06;41.77;101181.44;4967565;28;45472;-67
2023/07/22 04:50:53;;;;;;;;;10.67;8.00;;;;;20.09;41.35;101194.63;4967488;28;46159;-70
2023/07/22 04:53:19;;;;;;;;;10.33;8.67;;;;;20.19;41.37;101176.59;4942978;28;45461;-69
2023/07/22 04:55:45;;;;;;;;;4.33;4.33;;;;;20.26;41.16;101176.38;4959286;28;45523;-71
2023/07/22 04:58:11;;;;;;;;;11.33;11.33;;;;;20.32;41.43;101184.16;4955930;28;45410;-70
2023/07/22 05:00:37;;;;;;;;;8.00;7.67;;;;;20.34;41.25;101177.00;4957505;28;46077;-71
2023/07/22 05:03:05;;;;;;;;;12.33;10.00;;;;;20.46;41.10;101178.41;4968047;28;45297;-70
2023/07/22 05:05:32;;;;;;;;;16.67;16.33;;;;;20.58;40.46;101182.50;4973787;28;45377;-71
2023/07/22 05:07:59;;;;;;;;;13.67;10.67;;;;;20.51;40.91;101162.28;4956885;28;45594;-71
2023/07/22 05:10:58;;;;;;;;;10.67;10.00;;;;;20.60;40.39;101169.16;4975547;28;45484;-74
2023/07/22 05:13:23;;;;;;;;;9.00;7.67;;;;;20.63;40.05;101155.72;4972592;28;45637;-73
2023/07/22 05:15:49;;;;;;;;;10.67;7.67;;;;;20.82;39.88;101180.81;4971184;28;45606;-76
2023/07/22 05:18:14;;;;;;;;;9.67;6.00;;;;;20.89;39.74;101182.34;4974559;28;45332;-73
2023/07/22 05:20:41;;;;;;;;;13.00;8.67;;;;;20.90;39.69;101167.22;4972634;28;45471;-72
2023/07/22 05:23:07;;;;;;;;;6.33;6.33;;;;;20.85;39.35;101147.88;4970983;28;45462;-71
2023/07/22 05:25:33;;;;;;;;;11.00;9.67;;;;;20.92;39.54;101144.09;4977303;28;45755;-72
2023/07/22 05:28:00;;;;;;;;;11.67;9.00;;;;;21.14;39.57;101176.16;4978410;28;45411;-74
2023/07/22 05:30:25;;;;;;;;;9.67;8.33;;;;;21.21;39.27;101180.34;4975988;28;46123;-74
2023/07/22 05:32:54;;;;;;;;;15.67;10.00;;;;;21.26;39.42;101177.53;4972803;28;45487;-74
2023/07/22 05:35:20;;;;;;;;;13.33;9.33;;;;;21.31;38.96;101175.59;4965847;28;45566;-71
2023/07/22 05:37:46;;;;;;;;;9.33;9.33;;;;;21.34;38.83;101173.66;4960763;28;45472;-74
2023/07/22 05:40:13;;;;;;;;;10.00;8.33;;;;;21.28;38.70;101149.91;4964285;28;46103;-72
2023/07/22 05:42:38;;;;;;;;;7.67;7.67;;;;;21.38;38.80;101163.78;4975021;28;45710;-75
2023/07/22 05:45:04;;;;;;;;;9.00;6.67;;;;;21.36;38.61;101154.97;4973535;28;45507;-73
2023/07/22 05:47:30;;;;;;;;;12.33;9.33;;;;;21.51;38.75;101174.88;4967599;28;45492;-72
2023/07/22 05:49:56;;;;;;;;;11.67;8.33;;;;;21.53;39.00;101181.91;4968201;28;45942;-72
2023/07/22 05:52:22;;;;;;;;;10.67;7.33;;;;;21.59;38.69;101180.78;4955268;28;45432;-71
2023/07/22 05:54:47;;;;;;;;;9.00;7.00;;;;;21.59;38.90;101171.03;4958751;28;45319;-69
2023/07/22 05:57:13;;;;;;;;;10.33;9.33;;;;;21.69;38.70;101181.31;4960769;28;45510;-72
2023/07/22 05:59:40;;;;;;;;;12.33;9.67;;;;;21.74;38.32;101171.38;4963572;28;46145;-72
2023/07/22 06:02:06;;;;;;;;;13.00;11.33;;;;;21.75;38.52;101173.09;4972116;28;45260;-73
2023/07/22 06:04:32;;;;;;;;;3.67;3.33;;;;;21.84;38.43;101183.44;4962156;28;45514;-70
2023/07/22 06:06:57;;;;;;;;;12.67;7.67;;;;;21.91;38.09;101178.72;4960258;28;45338;-70
2023/07/22 06:09:23;;;;;;;;;13.67;8.67;;;;;21.93;38.01;101172.41;4958377;28;47586;-72
2023/07/22 06:11:55;;;;;;;;;10.00;8.67;;;;;21.90;38.68;101172.53;4960265;28;45456;-73
2023/07/22 06:14:21;;;;;;;;;10.00;9.00;;;;;21.97;38.33;101182.03;4962718;28;45361;-71
2023/07/22 06:16:46;;;;;;;;;8.33;6.67;;;;;21.94;38.42;101173.28;4960282;28;45542;-74
2023/07/22 06:19:12;;;;;;;;;7.00;6.33;;;;;22.06;38.52;101178.13;4959606;28;46135;-74
2023/07/22 06:21:41;;;;;;;;;10.33;10.00;;;;;22.18;38.55;101185.66;4960318;28;45702;-75
2023/07/22 06:24:07;;;;;;;;;9.67;9.67;;;;;22.27;39.42;101179.13;4967403;28;45559;-73
2023/07/22 06:26:35;;;;;;;;;10.00;7.33;;;;;22.09;39.74;101134.47;4971248;28;45735;-74
2023/07/22 06:29:04;;;;;;;;;12.00;8.00;;;;;22.34;39.99;101164.59;4956425;28;46209;-72
2023/07/22 06:31:30;;;;;;;;;8.67;5.67;;;;;22.47;40.19;101181.00;4959545;28;45535;-72
2023/07/22 06:34:05;;;;;;;;;10.33;9.33;;;;;22.52;40.24;101184.34;4964632;28;45807;-75
2023/07/22 06:36:30;;;;;;;;;13.00;8.00;;;;;22.50;40.58;101183.56;4966947;28;45524;-74
2023/07/22 06:38:56;;;;;;;;;11.67;10.00;;;;;22.41;40.97;101176.78;4960287;28;45633;-74
2023/07/22 06:41:24;;;;;;;;;9.00;7.67;;;;;22.36;41.29;101169.91;4959441;28;45587;-74
2023/07/22 06:43:53;;;;;;;;;9.00;7.67;;;;;22.42;41.73;101162.50;4961123;28;45521;-73
2023/07/22 06:46:22;;;;;;;;;9.00;8.33;;;;;22.59;42.09;101172.50;4961580;28;45634;-72
2023/07/22 06:48:56;;;;;;;;;9.00;8.33;;;;;22.62;41.85;101155.47;4958853;28;45440;-73
2023/07/22 06:51:25;;;;;;;;;9.00;9.00;;;;;22.68;42.25;101159.69;4955090;28;45527;-73
2023/07/22 06:53:51;;;;;;;;;5.67;4.67;;;;;22.71;42.72;101160.44;4955527;28;45375;-74
2023/07/22 06:56:20;;;;;;;;;9.33;8.00;;;;;22.81;42.53;101164.44;4970381;28;45560;-75
2023/07/22 06:58:47;;;;;;;;;13.00;11.00;;;;;22.82;42.54;101151.97;4959085;28;45370;-73
2023/07/22 07:01:18;;;;;;;;;8.67;6.33;;;;;22.55;42.69;101108.63;4965433;28;45589;-74
2023/07/22 07:03:43;;;;;;;;;10.33;7.00;;;;;23.06;42.61;101180.34;4960653;28;45460;-72
2023/07/22 07:06:09;;;;;;;;;5.67;5.67;;;;;23.10;42.63;101186.41;4962798;28;45956;-72
2023/07/22 07:08:34;;;;;;;;;8.00;8.00;;;;;23.02;42.82;101165.38;4973382;28;46925;-73
2023/07/22 07:11:01;;;;;;;;;12.00;9.67;;;;;23.02;43.16;101183.22;4958295;28;45805;-69
2023/07/22 07:13:26;;;;;;;;;9.33;8.33;;;;;23.08;42.95;101178.44;4965514;28;45572;-72
2023/07/22 07:15:53;;;;;;;;;8.00;7.00;;;;;23.08;42.97;101185.59;4963845;28;45464;-73
2023/07/22 07:18:22;;;;;;;;;10.67;9.00;;;;;23.15;42.67;101175.53;4962999;28;47285;-72
2023/07/22 07:20:48;;;;;;;;;10.33;9.00;;;;;23.28;42.36;101176.75;4967218;28;45438;-73
2023/07/22 07:23:16;;;;;;;;;10.00;10.00;;;;;23.29;42.17;101170.44;4968806;28;45528;-71
2023/07/22 07:25:42;;;;;;;;;10.33;10.00;;;;;23.38;41.64;101179.88;4961087;28;46684;-71
2023/07/22 07:28:08;;;;;;;;;9.67;7.00;;;;;23.44;41.67;101179.56;4965566;28;45580;-70
2023/07/22 07:30:34;;;;;;;;;14.67;8.00;;;;;23.56;41.17;101175.47;4960851;28;45364;-75
2023/07/22 07:33:00;;;;;;;;;12.00;8.00;;;;;23.64;41.08;101168.00;4965181;28;45478;-74
2023/07/22 07:35:26;;;;;;;;;10.33;8.00;;;;;23.76;40.88;101175.47;4967707;28;45443;-74
2023/07/22 07:37:52;;;;;;;;;11.00;9.00;;;;;23.74;40.92;101158.63;4976829;28;45463;-74
2023/07/22 07:40:18;;;;;;;;;11.00;7.00;;;;;23.92;40.38;101176.50;4972247;28;45360;-74
2023/07/22 07:42:43;;;;;;;;;9.33;7.00;;;;;23.87;40.23;101165.16;4970908;28;45707;-73
2023/07/22 07:45:09;;;;;;;;;8.33;8.33;;;;;23.76;40.40;101164.78;4970096;28;45472;-73
2023/07/22 07:47:35;;;;;;;;;9.33;9.00;;;;;23.82;40.32;101185.03;4967491;28;45801;-74
2023/07/22 07:50:03;;;;;;;;;7.00;7.00;;;;;23.86;39.90;101183.94;4969618;28;45379;-73
2023/07/22 07:52:28;;;;;;;;;10.00;7.00;;;;;23.84;39.94;101189.34;4971157;28;45756;-73
2023/07/22 07:54:54;;;;;;;;;7.00;6.33;;;;;23.80;39.80;101178.88;4967281;28;45371;-75
2023/07/22 07:57:20;;;;;;;;;8.33;8.33;;;;;23.80;39.49;101186.91;4957035;28;45714;-74
2023/07/22 07:59:45;;;;;;;;;14.00;7.33;;;;;23.82;39.38;101198.41;4970496;28;45266;-73
2023/07/22 08:02:11;;;;;;;;;5.67;5.67;;;;;23.82;39.40;101187.69;4958148;28;45446;-74
2023/07/22 08:04:37;;;;;;;;;14.00;11.67;;;;;23.79;39.11;101187.84;4970567;28;45982;-76
2023/07/22 08:07:04;;;;;;;;;10.67;9.33;;;;;23.77;39.48;101187.03;4962939;28;45286;-73
2023/07/22 08:09:29;;;;;;;;;11.33;8.33;;;;;23.78;39.30;101184.31;4958161;28;45484;-71
2023/07/22 08:11:55;;;;;;;;;9.00;6.33;;;;;23.81;39.32;101191.31;4958765;28;45679;-75
2023/07/22 08:14:22;;;;;;;;;8.33;8.00;;;;;23.97;38.88;101194.16;4961755;28;46625;-74
2023/07/22 08:16:47;;;;;;;;;11.33;8.33;;;;;23.99;38.94;101190.47;4961158;28;45415;-73
2023/07/22 08:19:13;;;;;;;;;7.33;7.33;;;;;24.04;38.30;101190.25;4960128;28;45460;-73
2023/07/22 08:21:39;;;;;;;;;10.67;10.00;;;;;24.00;37.97;101183.31;4958156;28;45479;-73
2023/07/22 08:24:05;;;;;;;;;8.00;8.00;;;;;24.03;37.79;101162.63;4959131;28;45412;-73
2023/07/22 08:26:30;;;;;;;;;12.33;9.00;;;;;24.04;38.39;101174.22;4967028;28;46014;-73
2023/07/22 08:28:56;;;;;;;;;9.33;7.33;;;;;24.04;38.03;101169.72;4959706;28;45500;-73
2023/07/22 08:31:21;;;;;;;;;14.00;7.00;;;;;24.01;37.41;101161.81;4959590;28;45399;-73
2023/07/22 08:33:47;;;;;;;;;5.00;4.33;;;;;24.01;37.33;101161.81;4965500;28;45416;-69
2023/07/22 08:36:12;;;;;;;;;13.33;7.67;;;;;23.92;37.54;101156.94;4957863;28;45436;-74
2023/07/22 08:38:38;;;;;;;;;7.00;7.00;;;;;24.01;37.33;101156.47;4957332;28;45254;-74
2023/07/22 08:41:04;;;;;;;;;9.67;7.00;;;;;24.15;37.03;101165.66;4949372;28;45512;-74
2023/07/22 08:43:29;;;;;;;;;8.67;7.00;;;;;24.09;36.77;101162.34;4958062;28;45348;-75
2023/07/22 08:46:00;;;;;;;;;8.33;8.33;;;;;24.05;36.82;101159.88;4957828;28;45455;-73
2023/07/22 08:48:29;;;;;;;;;12.33;8.00;;;;;24.07;36.60;101158.00;4956829;28;45348;-75
2023/07/22 08:51:07;;;;;;;;;11.67;8.00;;;;;23.80;36.79;101165.50;4958321;28;45392;-73
2023/07/22 08:53:36;;;;;;;;;8.33;7.67;;;;;23.90;36.55;101169.50;4956380;28;45497;-74
2023/07/22 08:56:03;;;;;;;;;8.00;6.67;;;;;23.83;37.04;101158.22;4957156;28;46404;-74
2023/07/22 08:58:29;;;;;;;;;9.33;8.00;;;;;23.91;36.55;101164.06;4973596;28;45606;-72
2023/07/22 09:01:02;;;;;;;;;9.33;6.33;;;;;23.99;36.72;101176.22;4964655;28;45453;-74
2023/07/22 09:03:27;;;;;;;;;6.67;6.67;;;;;24.03;36.71;101157.25;4961793;28;45381;-70
2023/07/22 09:05:54;;;;;;;;;9.00;9.00;;;;;24.18;36.78;101155.69;4965319;28;45539;-70
2023/07/22 09:08:20;;;;;;;;;8.33;8.33;;;;;24.25;36.64;101159.81;4961165;28;45392;-69
2023/07/22 09:10:47;;;;;;;;;7.00;7.00;;;;;24.36;36.75;101161.06;4969340;28;45498;-73
2023/07/22 09:13:15;;;;;;;;;8.00;7.33;;;;;24.32;36.36;101146.97;4960495;28;45371;-73
2023/07/22 09:15:41;;;;;;;;;8.67;7.00;;;;;24.42;36.29;101153.63;4975936;28;46118;-70
2023/07/22 09:18:08;;;;;;;;;9.33;8.00;;;;;24.36;36.88;101136.97;4961574;28;45314;-69
2023/07/22 09:20:34;;;;;;;;;7.33;6.67;;;;;24.44;36.33;101157.09;4971649;28;45539;-72
2023/07/22 09:23:00;;;;;;;;;11.00;8.67;;;;;24.43;36.38;101162.50;4960459;28;45404;-72
2023/07/22 09:25:29;;;;;;;;;8.00;7.67;;;;;24.43;35.89;101147.31;4958509;28;45721;-72
2023/07/22 09:27:58;;;;;;;;;7.67;7.00;;;;;24.42;36.09;101150.94;4961127;28;45160;-70
2023/07/22 09:30:35;;;;;;;;;7.00;6.67;;;;;24.26;36.37;101108.00;4960281;28;45389;-72
2023/07/22 09:33:05;;;;;;;;;6.67;6.67;;;;;24.51;36.12;101130.88;4955560;28;45463;-72
2023/07/22 09:35:51;;;;;;;;;9.67;7.67;;;;;24.62;36.18;101146.44;4964728;28;46232;-68
2023/07/22 09:38:24;;;;;;;;;6.00;6.00;;;;;24.59;35.88;101131.38;4965983;28;45464;-73
2023/07/22 09:40:50;;;;;;;;;11.00;7.00;;;;;24.51;35.84;101105.00;4980829;28;45392;-69
2023/07/22 09:43:16;;;;;;;;;10.67;7.00;;;;;24.62;35.75;101127.69;4974315;28;45452;-70
2023/07/22 09:45:42;;;;;;;;;6.67;6.00;;;;;24.49;35.52;101101.53;4973273;28;46648;-72
2023/07/22 09:48:09;;;;;;;;;13.00;8.00;;;;;24.67;36.11;101129.16;4970055;28;45407;-72
2023/07/22 09:50:36;;;;;;;;;9.00;7.33;;;;;24.72;35.67;101129.81;4969546;28;45622;-73
2023/07/22 09:53:03;;;;;;;;;6.00;5.00;;;;;24.78;35.46;101120.59;4956487;28;45386;-73
2023/07/22 09:55:30;;;;;;;;;8.67;5.33;;;;;24.87;35.45;101109.41;4978347;28;46209;-73
2023/07/22 09:57:59;;;;;;;;;8.67;7.00;;;;;24.82;35.59;101111.47;4965605;28;45484;-70
2023/07/22 10:00:31;;;;;;;;;9.00;9.00;;;;;24.90;35.36;101119.97;4974551;28;45444;-70
2023/07/22 10:02:58;;;;;;;;;14.33;9.00;;;;;24.90;35.38;101116.44;4971748;28;45401;-70
2023/07/22 10:05:25;;;;;;;;;10.00;10.00;;;;;24.98;35.30;101104.34;4970735;28;46124;-68
2023/07/22 10:07:58;;;;;;;;;12.67;8.67;;;;;25.14;35.83;101116.94;4960025;28;45452;-74
2023/07/22 10:10:38;;;;;;;;;8.00;6.33;;;;;25.25;35.10;101122.66;4953209;28;45255;-77
2023/07/22 10:13:05;;;;;;;;;6.33;5.33;;;;;25.05;34.67;101079.91;4962628;28;45542;-70
2023/07/22 10:15:34;;;;;;;;;6.33;6.33;;;;;25.35;34.44;101121.19;4963561;28;46341;-69
2023/07/22 10:18:00;;;;;;;;;9.33;6.67;;;;;25.32;34.62;101118.69;4949709;28;45409;-69
2023/07/22 10:20:26;;;;;;;;;6.67;6.67;;;;;25.14;34.32;101109.78;4953886;28;45406;-75
2023/07/22 10:22:51;;;;;;;;;6.00;6.00;;;;;24.97;34.44;101088.38;4956985;28;45539;-74
2023/07/22 10:25:21;;;;;;;;;7.33;6.67;;;;;25.03;34.62;101105.91;4952662;28;45414;-73
2023/07/22 10:27:49;;;;;;;;;9.67;7.00;;;;;25.09;34.52;101116.34;4956984;28;45458;-77
2023/07/22 10:30:16;;;;;;;;;7.33;6.33;;;;;25.12;34.30;101117.00;4941675;28;45526;-73
2023/07/22 10:32:45;;;;;;;;;11.33;7.67;;;;;25.24;34.34;101102.13;4951170;28;45504;-71
2023/07/22 10:35:21;;;;;;;;;9.67;7.33;;;;;25.52;34.12;101116.75;4942119;28;46068;-68
2023/07/22 10:37:47;;;;;;;;;7.00;6.67;;;;;25.69;33.56;101103.25;4955498;28;45453;-72
2023/07/22 10:40:29;;;;;;;;;8.67;8.67;;;;;25.88;33.07;101097.75;4942447;28;45366;-71
2023/07/22 10:43:03;;;;;;;;;8.00;6.67;;;;;26.00;32.74;101101.56;4948713;28;45713;-73
2023/07/22 10:45:31;;;;;;;;;6.00;6.00;;;;;25.89;33.21;101103.97;4963925;28;46753;-71
2023/07/22 10:48:07;;;;;;;;;6.00;6.00;;;;;25.80;33.56;101097.31;4965125;28;45406;-72
2023/07/22 10:50:47;;;;;;;;;8.00;6.33;;;;;25.78;32.83;101094.69;4944541;28;45548;-73
2023/07/22 10:53:19;;;;;;;;;5.00;4.33;;;;;25.82;33.25;101103.44;4959419;28;45493;-71
2023/07/22 10:56:09;;;;;;;;;8.00;6.67;;;;;25.88;32.58;101091.53;4968500;28;45500;-73
2023/07/22 10:58:45;;;;;;;;;6.00;6.00;;;;;25.90;32.78;101090.50;4964012;28;45591;-72
2023/07/22 11:01:28;;;;;;;;;8.67;7.00;;;;;25.86;32.53;101094.28;4968296;28;45520;-72
2023/07/22 11:04:14;;;;;;;;;8.33;7.67;;;;;25.85;32.48;101094.38;4961622;28;45440;-72
2023/07/22 11:06:49;;;;;;;;;7.33;5.33;;;;;25.80;32.62;101078.53;4957590;28;45404;-73
2023/07/22 11:09:29;;;;;;;;;4.50;4.25;;;;;25.98;32.45;101088.25;4958523;28;45517;-73
2023/07/22 11:12:18;;;;;;;;;5.00;5.00;;;;;26.11;32.48;101066.06;4959938;28;45511;-72
2023/07/22 11:14:51;;;;;;;;;9.00;6.00;;;;;26.38;32.00;101077.88;4953431;28;45552;-73
2023/07/22 11:17:26;;;;;;;;;6.67;5.33;;;;;26.57;31.95;101069.63;4958931;28;45374;-73
2023/07/22 11:19:52;;;;;;;;;7.00;6.00;;;;;26.75;31.33;101062.28;4960150;28;45600;-73
2023/07/22 11:22:18;;;;;;;;;6.00;6.00;;;;;26.85;31.31;101071.50;4959167;28;45421;-72